sensor_id;sensor_type;location;lat;lon;timestamp;temperature;humidity
66144;SHT31;52947;50.842;6.084;2023-04-22T00:00:53;7.63;93.67
66144;SHT31;52947;50.842;6.084;2023-04-22T00:03:21;7.73;93.85
66144;SHT31;52947;50.842;6.084;2023-04-22T00:05:49;7.69;93.46
66144;SHT31;52947;50.842;6.084;2023-04-22T00:08:18;7.72;93.59
66144;SHT31;52947;50.842;6.084;2023-04-22T00:10:46;7.70;93.51
66144;SHT31;52947;50.842;6.084;2023-04-22T00:13:14;7.79;93.50
66144;SHT31;52947;50.842;6.084;2023-04-22T00:15:42;7.73;93.52
66144;SHT31;52947;50.842;6.084;2023-04-22T00:18:10;7.73;93.67
66144;SHT31;52947;50.842;6.084;2023-04-22T00:20:40;7.82;93.83
66144;SHT31;52947;50.842;6.084;2023-04-22T00:23:09;7.94;93.70
66144;SHT31;52947;50.842;6.084;2023-04-22T00:25:39;8.20;92.82
66144;SHT31;52947;50.842;6.084;2023-04-22T00:28:07;8.23;92.53
66144;SHT31;52947;50.842;6.084;2023-04-22T00:30:35;8.28;92.08
66144;SHT31;52947;50.842;6.084;2023-04-22T00:33:03;8.23;92.08
66144;SHT31;52947;50.842;6.084;2023-04-22T00:35:31;8.25;92.15
66144;SHT31;52947;50.842;6.084;2023-04-22T00:37:58;8.25;92.21
66144;SHT31;52947;50.842;6.084;2023-04-22T00:40:26;8.30;92.11
66144;SHT31;52947;50.842;6.084;2023-04-22T00:42:57;8.31;92.00
66144;SHT31;52947;50.842;6.084;2023-04-22T00:45:26;8.35;91.70
66144;SHT31;52947;50.842;6.084;2023-04-22T00:47:54;8.35;91.73
66144;SHT31;52947;50.842;6.084;2023-04-22T00:50:23;8.30;92.09
66144;SHT31;52947;50.842;6.084;2023-04-22T00:52:51;8.28;92.31
66144;SHT31;52947;50.842;6.084;2023-04-22T00:55:19;8.34;92.07
66144;SHT31;52947;50.842;6.084;2023-04-22T00:57:48;8.37;91.88
66144;SHT31;52947;50.842;6.084;2023-04-22T01:00:18;8.35;91.96
66144;SHT31;52947;50.842;6.084;2023-04-22T01:02:52;8.31;92.24
66144;SHT31;52947;50.842;6.084;2023-04-22T01:05:22;8.38;92.14
66144;SHT31;52947;50.842;6.084;2023-04-22T01:07:50;8.45;92.04
66144;SHT31;52947;50.842;6.084;2023-04-22T01:10:18;8.40;92.15
66144;SHT31;52947;50.842;6.084;2023-04-22T01:12:46;8.41;92.17
66144;SHT31;52947;50.842;6.084;2023-04-22T01:15:14;8.40;92.21
66144;SHT31;52947;50.842;6.084;2023-04-22T01:17:44;8.37;92.30
66144;SHT31;52947;50.842;6.084;2023-04-22T01:20:12;8.35;92.56
66144;SHT31;52947;50.842;6.084;2023-04-22T01:22:41;8.34;92.62
66144;SHT31;52947;50.842;6.084;2023-04-22T01:25:10;8.28;93.00
66144;SHT31;52947;50.842;6.084;2023-04-22T01:27:39;8.30;92.99
66144;SHT31;52947;50.842;6.084;2023-04-22T01:30:08;8.28;93.00
66144;SHT31;52947;50.842;6.084;2023-04-22T01:32:38;8.30;92.93
66144;SHT31;52947;50.842;6.084;2023-04-22T01:35:06;8.33;92.79
66144;SHT31;52947;50.842;6.084;2023-04-22T01:37:34;8.27;93.00
66144;SHT31;52947;50.842;6.084;2023-04-22T01:40:04;8.25;92.79
66144;SHT31;52947;50.842;6.084;2023-04-22T01:42:34;8.21;93.16
66144;SHT31;52947;50.842;6.084;2023-04-22T01:45:03;8.23;93.28
66144;SHT31;52947;50.842;6.084;2023-04-22T01:47:30;8.25;93.32
66144;SHT31;52947;50.842;6.084;2023-04-22T01:49:58;8.31;93.11
66144;SHT31;52947;50.842;6.084;2023-04-22T01:52:26;8.24;93.21
66144;SHT31;52947;50.842;6.084;2023-04-22T01:54:55;8.23;93.34
66144;SHT31;52947;50.842;6.084;2023-04-22T01:57:22;8.23;93.06
66144;SHT31;52947;50.842;6.084;2023-04-22T01:59:52;8.20;93.42
66144;SHT31;52947;50.842;6.084;2023-04-22T02:02:21;8.18;93.44
66144;SHT31;52947;50.842;6.084;2023-04-22T02:04:49;8.18;93.49
66144;SHT31;52947;50.842;6.084;2023-04-22T02:07:17;8.14;93.69
66144;SHT31;52947;50.842;6.084;2023-04-22T02:09:45;8.08;93.61
66144;SHT31;52947;50.842;6.084;2023-04-22T02:12:16;8.03;93.90
66144;SHT31;52947;50.842;6.084;2023-04-22T02:14:44;8.03;94.22
66144;SHT31;52947;50.842;6.084;2023-04-22T02:17:13;8.06;94.27
66144;SHT31;52947;50.842;6.084;2023-04-22T02:19:44;8.07;94.26
66144;SHT31;52947;50.842;6.084;2023-04-22T02:22:12;8.27;93.72
66144;SHT31;52947;50.842;6.084;2023-04-22T02:24:40;8.27;93.94
66144;SHT31;52947;50.842;6.084;2023-04-22T02:27:08;8.30;93.96
66144;SHT31;52947;50.842;6.084;2023-04-22T02:29:36;8.25;93.54
66144;SHT31;52947;50.842;6.084;2023-04-22T02:32:05;8.23;93.53
66144;SHT31;52947;50.842;6.084;2023-04-22T02:34:35;8.11;93.21
66144;SHT31;52947;50.842;6.084;2023-04-22T02:37:03;8.00;93.18
66144;SHT31;52947;50.842;6.084;2023-04-22T02:39:31;7.91;93.25
66144;SHT31;52947;50.842;6.084;2023-04-22T02:41:59;8.01;93.71
66144;SHT31;52947;50.842;6.084;2023-04-22T02:44:28;8.16;93.66
66144;SHT31;52947;50.842;6.084;2023-04-22T02:46:55;8.25;93.34
66144;SHT31;52947;50.842;6.084;2023-04-22T02:49:23;8.37;93.13
66144;SHT31;52947;50.842;6.084;2023-04-22T02:51:53;8.42;92.06
66144;SHT31;52947;50.842;6.084;2023-04-22T02:54:21;8.31;91.88
66144;SHT31;52947;50.842;6.084;2023-04-22T02:56:49;8.24;93.24
66144;SHT31;52947;50.842;6.084;2023-04-22T02:59:17;8.25;93.01
66144;SHT31;52947;50.842;6.084;2023-04-22T03:01:45;8.17;92.76
66144;SHT31;52947;50.842;6.084;2023-04-22T03:04:24;8.08;92.95
66144;SHT31;52947;50.842;6.084;2023-04-22T03:06:53;8.03;93.38
66144;SHT31;52947;50.842;6.084;2023-04-22T03:09:21;7.98;93.61
66144;SHT31;52947;50.842;6.084;2023-04-22T03:11:49;8.03;93.96
66144;SHT31;52947;50.842;6.084;2023-04-22T03:14:17;8.16;94.23
66144;SHT31;52947;50.842;6.084;2023-04-22T03:16:45;8.17;93.82
66144;SHT31;52947;50.842;6.084;2023-04-22T03:19:13;8.23;93.82
66144;SHT31;52947;50.842;6.084;2023-04-22T03:21:42;8.24;93.67
66144;SHT31;52947;50.842;6.084;2023-04-22T03:24:11;8.40;93.37
66144;SHT31;52947;50.842;6.084;2023-04-22T03:26:45;8.42;93.59
66144;SHT31;52947;50.842;6.084;2023-04-22T03:29:13;8.51;93.22
66144;SHT31;52947;50.842;6.084;2023-04-22T03:31:41;8.47;93.05
66144;SHT31;52947;50.842;6.084;2023-04-22T03:34:09;8.52;93.28
66144;SHT31;52947;50.842;6.084;2023-04-22T03:36:37;8.52;93.12
66144;SHT31;52947;50.842;6.084;2023-04-22T03:39:05;8.51;92.85
66144;SHT31;52947;50.842;6.084;2023-04-22T03:41:35;8.38;92.86
66144;SHT31;52947;50.842;6.084;2023-04-22T03:44:03;8.33;93.01
66144;SHT31;52947;50.842;6.084;2023-04-22T03:46:33;8.23;92.89
66144;SHT31;52947;50.842;6.084;2023-04-22T03:49:12;8.11;92.94
66144;SHT31;52947;50.842;6.084;2023-04-22T03:51:42;8.00;92.84
66144;SHT31;52947;50.842;6.084;2023-04-22T03:54:14;7.86;93.02
66144;SHT31;52947;50.842;6.084;2023-04-22T03:56:50;7.82;93.04
66144;SHT31;52947;50.842;6.084;2023-04-22T03:59:20;7.80;92.99
66144;SHT31;52947;50.842;6.084;2023-04-22T04:01:50;7.73;93.34
66144;SHT31;52947;50.842;6.084;2023-04-22T04:04:20;7.75;93.52
66144;SHT31;52947;50.842;6.084;2023-04-22T04:06:55;7.67;93.34
66144;SHT31;52947;50.842;6.084;2023-04-22T04:09:23;7.65;93.44
66144;SHT31;52947;50.842;6.084;2023-04-22T04:11:52;7.62;93.65
66144;SHT31;52947;50.842;6.084;2023-04-22T04:14:20;7.63;93.78
66144;SHT31;52947;50.842;6.084;2023-04-22T04:16:50;7.56;93.69
66144;SHT31;52947;50.842;6.084;2023-04-22T04:19:26;7.53;93.90
66144;SHT31;52947;50.842;6.084;2023-04-22T04:21:54;7.55;94.11
66144;SHT31;52947;50.842;6.084;2023-04-22T04:24:24;7.49;94.30
66144;SHT31;52947;50.842;6.084;2023-04-22T04:27:00;7.61;94.76
66144;SHT31;52947;50.842;6.084;2023-04-22T04:29:35;7.76;94.21
66144;SHT31;52947;50.842;6.084;2023-04-22T04:32:10;7.66;93.76
66144;SHT31;52947;50.842;6.084;2023-04-22T04:34:37;7.56;93.76
66144;SHT31;52947;50.842;6.084;2023-04-22T04:37:07;7.59;93.94
66144;SHT31;52947;50.842;6.084;2023-04-22T04:39:53;7.61;94.18
66144;SHT31;52947;50.842;6.084;2023-04-22T04:42:32;7.70;94.37
66144;SHT31;52947;50.842;6.084;2023-04-22T04:45:05;7.83;94.43
66144;SHT31;52947;50.842;6.084;2023-04-22T04:47:33;7.84;94.42
66144;SHT31;52947;50.842;6.084;2023-04-22T04:50:11;7.90;94.72
66144;SHT31;52947;50.842;6.084;2023-04-22T04:52:39;8.11;94.86
66144;SHT31;52947;50.842;6.084;2023-04-22T04:55:08;8.18;94.31
66144;SHT31;52947;50.842;6.084;2023-04-22T04:57:37;8.42;94.36
66144;SHT31;52947;50.842;6.084;2023-04-22T05:00:06;8.68;93.45
66144;SHT31;52947;50.842;6.084;2023-04-22T05:02:34;8.88;92.82
66144;SHT31;52947;50.842;6.084;2023-04-22T05:05:04;9.15;92.31
66144;SHT31;52947;50.842;6.084;2023-04-22T05:07:32;9.29;91.96
66144;SHT31;52947;50.842;6.084;2023-04-22T05:10:01;9.58;91.19
66144;SHT31;52947;50.842;6.084;2023-04-22T05:12:31;9.64;90.76
66144;SHT31;52947;50.842;6.084;2023-04-22T05:15:01;9.92;90.50
66144;SHT31;52947;50.842;6.084;2023-04-22T05:17:28;10.09;89.72
66144;SHT31;52947;50.842;6.084;2023-04-22T05:19:57;10.12;89.73
66144;SHT31;52947;50.842;6.084;2023-04-22T05:22:25;10.35;88.57
66144;SHT31;52947;50.842;6.084;2023-04-22T05:24:53;10.45;88.72
66144;SHT31;52947;50.842;6.084;2023-04-22T05:27:22;10.46;88.40
66144;SHT31;52947;50.842;6.084;2023-04-22T05:29:50;10.48;88.49
66144;SHT31;52947;50.842;6.084;2023-04-22T05:32:24;10.59;87.92
66144;SHT31;52947;50.842;6.084;2023-04-22T05:34:55;10.53;88.31
66144;SHT31;52947;50.842;6.084;2023-04-22T05:37:23;10.49;88.72
66144;SHT31;52947;50.842;6.084;2023-04-22T05:39:51;10.50;88.35
66144;SHT31;52947;50.842;6.084;2023-04-22T05:42:19;10.52;88.51
66144;SHT31;52947;50.842;6.084;2023-04-22T05:44:48;10.48;88.56
66144;SHT31;52947;50.842;6.084;2023-04-22T05:47:16;10.53;88.24
66144;SHT31;52947;50.842;6.084;2023-04-22T05:49:46;10.67;88.42
66144;SHT31;52947;50.842;6.084;2023-04-22T05:52:18;10.77;88.34
66144;SHT31;52947;50.842;6.084;2023-04-22T05:54:59;11.04;87.38
66144;SHT31;52947;50.842;6.084;2023-04-22T05:57:27;11.43;86.13
66144;SHT31;52947;50.842;6.084;2023-04-22T05:59:57;11.81;85.76
66144;SHT31;52947;50.842;6.084;2023-04-22T06:02:26;12.45;84.78
66144;SHT31;52947;50.842;6.084;2023-04-22T06:04:57;12.96;84.26
66144;SHT31;52947;50.842;6.084;2023-04-22T06:07:26;13.05;84.33
66144;SHT31;52947;50.842;6.084;2023-04-22T06:09:54;13.20;83.37
66144;SHT31;52947;50.842;6.084;2023-04-22T06:12:32;13.74;81.33
66144;SHT31;52947;50.842;6.084;2023-04-22T06:14:59;13.80;81.65
66144;SHT31;52947;50.842;6.084;2023-04-22T06:17:28;13.83;83.02
66144;SHT31;52947;50.842;6.084;2023-04-22T06:19:57;13.98;81.99
66144;SHT31;52947;50.842;6.084;2023-04-22T06:22:25;14.08;81.37
66144;SHT31;52947;50.842;6.084;2023-04-22T06:24:53;14.92;78.58
66144;SHT31;52947;50.842;6.084;2023-04-22T06:27:21;16.05;77.70
66144;SHT31;52947;50.842;6.084;2023-04-22T06:29:49;16.49;75.59
66144;SHT31;52947;50.842;6.084;2023-04-22T06:32:17;17.08;70.87
66144;SHT31;52947;50.842;6.084;2023-04-22T06:34:44;16.76;72.39
66144;SHT31;52947;50.842;6.084;2023-04-22T06:37:14;16.69;71.67
66144;SHT31;52947;50.842;6.084;2023-04-22T06:39:43;17.14;69.09
66144;SHT31;52947;50.842;6.084;2023-04-22T06:42:29;18.38;68.54
66144;SHT31;52947;50.842;6.084;2023-04-22T06:45:36;19.74;66.45
66144;SHT31;52947;50.842;6.084;2023-04-22T06:48:21;21.02;61.90
66144;SHT31;52947;50.842;6.084;2023-04-22T06:51:08;21.85;58.11
66144;SHT31;52947;50.842;6.084;2023-04-22T06:53:37;22.81;57.28
66144;SHT31;52947;50.842;6.084;2023-04-22T06:56:05;22.17;56.28
66144;SHT31;52947;50.842;6.084;2023-04-22T06:58:33;21.68;56.84
66144;SHT31;52947;50.842;6.084;2023-04-22T07:01:01;21.64;57.44
66144;SHT31;52947;50.842;6.084;2023-04-22T07:03:29;22.08;55.77
66144;SHT31;52947;50.842;6.084;2023-04-22T07:06:05;22.81;54.65
66144;SHT31;52947;50.842;6.084;2023-04-22T07:08:33;23.29;52.77
66144;SHT31;52947;50.842;6.084;2023-04-22T07:11:03;23.85;51.98
66144;SHT31;52947;50.842;6.084;2023-04-22T07:13:36;24.30;48.80
66144;SHT31;52947;50.842;6.084;2023-04-22T07:16:04;23.51;50.20
66144;SHT31;52947;50.842;6.084;2023-04-22T07:18:32;23.63;50.94
66144;SHT31;52947;50.842;6.084;2023-04-22T07:21:01;23.12;50.65
66144;SHT31;52947;50.842;6.084;2023-04-22T07:23:29;23.34;50.75
66144;SHT31;52947;50.842;6.084;2023-04-22T07:25:57;23.04;52.35
66144;SHT31;52947;50.842;6.084;2023-04-22T07:28:26;23.38;50.99
66144;SHT31;52947;50.842;6.084;2023-04-22T07:30:54;23.56;50.66
66144;SHT31;52947;50.842;6.084;2023-04-22T07:33:22;23.69;50.09
66144;SHT31;52947;50.842;6.084;2023-04-22T07:35:52;24.21;49.11
66144;SHT31;52947;50.842;6.084;2023-04-22T07:38:24;24.33;48.52
66144;SHT31;52947;50.842;6.084;2023-04-22T07:40:52;24.63;47.87
66144;SHT31;52947;50.842;6.084;2023-04-22T07:43:20;23.89;48.13
66144;SHT31;52947;50.842;6.084;2023-04-22T07:45:49;24.16;48.48
66144;SHT31;52947;50.842;6.084;2023-04-22T07:48:17;23.79;48.74
66144;SHT31;52947;50.842;6.084;2023-04-22T07:50:45;23.68;49.54
66144;SHT31;52947;50.842;6.084;2023-04-22T07:53:13;23.37;50.09
66144;SHT31;52947;50.842;6.084;2023-04-22T07:55:43;22.37;51.99
66144;SHT31;52947;50.842;6.084;2023-04-22T07:58:11;21.78;52.83
66144;SHT31;52947;50.842;6.084;2023-04-22T08:00:39;21.96;52.11
66144;SHT31;52947;50.842;6.084;2023-04-22T08:03:08;22.25;51.96
66144;SHT31;52947;50.842;6.084;2023-04-22T08:05:37;22.94;50.60
66144;SHT31;52947;50.842;6.084;2023-04-22T08:08:04;23.49;49.75
66144;SHT31;52947;50.842;6.084;2023-04-22T08:10:32;24.09;48.61
66144;SHT31;52947;50.842;6.084;2023-04-22T08:13:00;24.30;48.13
66144;SHT31;52947;50.842;6.084;2023-04-22T08:15:28;24.85;47.37
66144;SHT31;52947;50.842;6.084;2023-04-22T08:17:56;25.01;46.38
66144;SHT31;52947;50.842;6.084;2023-04-22T08:20:26;25.59;46.92
66144;SHT31;52947;50.842;6.084;2023-04-22T08:22:54;26.37;44.70
66144;SHT31;52947;50.842;6.084;2023-04-22T08:25:25;26.02;44.76
66144;SHT31;52947;50.842;6.084;2023-04-22T08:27:53;25.18;45.96
66144;SHT31;52947;50.842;6.084;2023-04-22T08:30:21;25.66;46.37
66144;SHT31;52947;50.842;6.084;2023-04-22T08:32:49;25.83;44.66
66144;SHT31;52947;50.842;6.084;2023-04-22T08:35:19;25.60;45.04
66144;SHT31;52947;50.842;6.084;2023-04-22T08:37:48;26.30;44.71
66144;SHT31;52947;50.842;6.084;2023-04-22T08:40:16;26.73;44.29
66144;SHT31;52947;50.842;6.084;2023-04-22T08:42:44;28.18;43.01
66144;SHT31;52947;50.842;6.084;2023-04-22T08:45:12;26.67;43.24
66144;SHT31;52947;50.842;6.084;2023-04-22T08:47:41;25.87;44.39
66144;SHT31;52947;50.842;6.084;2023-04-22T08:50:10;24.92;46.21
66144;SHT31;52947;50.842;6.084;2023-04-22T08:52:37;24.34;47.22
66144;SHT31;52947;50.842;6.084;2023-04-22T08:55:08;24.54;46.91
66144;SHT31;52947;50.842;6.084;2023-04-22T08:57:37;24.78;46.43
66144;SHT31;52947;50.842;6.084;2023-04-22T09:00:06;24.64;47.36
66144;SHT31;52947;50.842;6.084;2023-04-22T09:02:36;23.45;49.55
66144;SHT31;52947;50.842;6.084;2023-04-22T09:05:05;23.41;49.08
66144;SHT31;52947;50.842;6.084;2023-04-22T09:07:33;23.17;50.87
66144;SHT31;52947;50.842;6.084;2023-04-22T09:10:02;23.05;50.22
66144;SHT31;52947;50.842;6.084;2023-04-22T09:12:31;22.80;50.96
66144;SHT31;52947;50.842;6.084;2023-04-22T09:14:59;23.25;50.66
66144;SHT31;52947;50.842;6.084;2023-04-22T09:17:31;23.52;49.87
66144;SHT31;52947;50.842;6.084;2023-04-22T09:20:01;24.19;48.67
66144;SHT31;52947;50.842;6.084;2023-04-22T09:22:37;25.32;46.97
66144;SHT31;52947;50.842;6.084;2023-04-22T09:25:13;26.30;46.01
66144;SHT31;52947;50.842;6.084;2023-04-22T09:27:43;26.98;44.99
66144;SHT31;52947;50.842;6.084;2023-04-22T09:30:16;26.93;44.72
66144;SHT31;52947;50.842;6.084;2023-04-22T09:32:52;26.24;45.13
66144;SHT31;52947;50.842;6.084;2023-04-22T09:35:26;25.89;45.76
66144;SHT31;52947;50.842;6.084;2023-04-22T09:37:54;25.46;46.80
66144;SHT31;52947;50.842;6.084;2023-04-22T09:40:22;24.96;47.11
66144;SHT31;52947;50.842;6.084;2023-04-22T09:42:53;25.59;47.42
66144;SHT31;52947;50.842;6.084;2023-04-22T09:45:26;26.13;45.51
66144;SHT31;52947;50.842;6.084;2023-04-22T09:47:55;25.98;45.79
66144;SHT31;52947;50.842;6.084;2023-04-22T09:50:24;25.46;47.81
66144;SHT31;52947;50.842;6.084;2023-04-22T09:52:54;25.54;46.96
66144;SHT31;52947;50.842;6.084;2023-04-22T09:55:23;25.33;47.26
66144;SHT31;52947;50.842;6.084;2023-04-22T09:57:54;24.56;48.08
66144;SHT31;52947;50.842;6.084;2023-04-22T10:00:24;24.40;47.62
66144;SHT31;52947;50.842;6.084;2023-04-22T10:02:52;24.41;48.29
66144;SHT31;52947;50.842;6.084;2023-04-22T10:05:20;24.34;48.13
66144;SHT31;52947;50.842;6.084;2023-04-22T10:07:48;24.54;47.55
66144;SHT31;52947;50.842;6.084;2023-04-22T10:10:16;24.44;47.40
66144;SHT31;52947;50.842;6.084;2023-04-22T10:12:46;24.37;48.28
66144;SHT31;52947;50.842;6.084;2023-04-22T10:15:15;23.14;50.20
66144;SHT31;52947;50.842;6.084;2023-04-22T10:17:45;23.48;49.00
66144;SHT31;52947;50.842;6.084;2023-04-22T10:20:16;24.19;48.65
66144;SHT31;52947;50.842;6.084;2023-04-22T10:22:46;23.96;48.75
66144;SHT31;52947;50.842;6.084;2023-04-22T10:25:20;23.68;49.34
66144;SHT31;52947;50.842;6.084;2023-04-22T10:27:52;23.62;49.64
66144;SHT31;52947;50.842;6.084;2023-04-22T10:30:29;23.56;49.31
66144;SHT31;52947;50.842;6.084;2023-04-22T10:36:08;22.43;51.96
66144;SHT31;52947;50.842;6.084;2023-04-22T10:38:37;22.59;51.59
66144;SHT31;52947;50.842;6.084;2023-04-22T10:41:05;22.63;51.40
66144;SHT31;52947;50.842;6.084;2023-04-22T10:43:47;23.10;51.04
66144;SHT31;52947;50.842;6.084;2023-04-22T10:49:22;24.51;49.58
66144;SHT31;52947;50.842;6.084;2023-04-22T10:51:52;24.03;50.09
66144;SHT31;52947;50.842;6.084;2023-04-22T10:54:57;23.82;51.01
66144;SHT31;52947;50.842;6.084;2023-04-22T10:57:34;23.85;50.27
66144;SHT31;52947;50.842;6.084;2023-04-22T11:00:29;23.49;50.95
66144;SHT31;52947;50.842;6.084;2023-04-22T11:03:09;23.76;50.64
66144;SHT31;52947;50.842;6.084;2023-04-22T11:05:39;23.75;50.38
66144;SHT31;52947;50.842;6.084;2023-04-22T11:08:14;23.46;51.88
66144;SHT31;52947;50.842;6.084;2023-04-22T11:10:44;22.84;52.94
66144;SHT31;52947;50.842;6.084;2023-04-22T11:13:13;22.08;54.84
66144;SHT31;52947;50.842;6.084;2023-04-22T11:15:44;21.61;55.99
66144;SHT31;52947;50.842;6.084;2023-04-22T11:18:15;21.02;57.37
66144;SHT31;52947;50.842;6.084;2023-04-22T11:20:45;20.79;57.38
66144;SHT31;52947;50.842;6.084;2023-04-22T11:23:26;20.86;57.69
66144;SHT31;52947;50.842;6.084;2023-04-22T11:25:55;20.76;57.40
66144;SHT31;52947;50.842;6.084;2023-04-22T11:28:23;20.85;57.02
66144;SHT31;52947;50.842;6.084;2023-04-22T11:30:52;21.06;56.97
66144;SHT31;52947;50.842;6.084;2023-04-22T11:33:20;21.13;56.82
66144;SHT31;52947;50.842;6.084;2023-04-22T11:35:49;20.97;56.74
66144;SHT31;52947;50.842;6.084;2023-04-22T11:38:18;20.51;57.55
66144;SHT31;52947;50.842;6.084;2023-04-22T11:40:45;20.49;57.65
66144;SHT31;52947;50.842;6.084;2023-04-22T11:43:14;20.34;58.39
66144;SHT31;52947;50.842;6.084;2023-04-22T11:45:44;20.07;58.47
66144;SHT31;52947;50.842;6.084;2023-04-22T11:48:13;20.31;58.39
66144;SHT31;52947;50.842;6.084;2023-04-22T11:50:42;20.32;58.28
66144;SHT31;52947;50.842;6.084;2023-04-22T11:53:16;20.08;58.23
66144;SHT31;52947;50.842;6.084;2023-04-22T11:55:46;20.01;58.47
66144;SHT31;52947;50.842;6.084;2023-04-22T11:58:18;19.83;59.21
66144;SHT31;52947;50.842;6.084;2023-04-22T12:00:47;19.46;59.89
66144;SHT31;52947;50.842;6.084;2023-04-22T12:03:17;19.23;60.83
66144;SHT31;52947;50.842;6.084;2023-04-22T12:05:46;19.01;61.24
66144;SHT31;52947;50.842;6.084;2023-04-22T12:08:17;18.72;62.22
66144;SHT31;52947;50.842;6.084;2023-04-22T12:10:47;18.62;62.82
66144;SHT31;52947;50.842;6.084;2023-04-22T12:13:20;18.65;63.38
66144;SHT31;52947;50.842;6.084;2023-04-22T12:15:52;18.79;63.46
66144;SHT31;52947;50.842;6.084;2023-04-22T12:18:27;18.92;63.47
66144;SHT31;52947;50.842;6.084;2023-04-22T12:20:58;18.89;63.63
66144;SHT31;52947;50.842;6.084;2023-04-22T12:23:28;19.09;63.21
66144;SHT31;52947;50.842;6.084;2023-04-22T12:25:55;19.12;63.54
66144;SHT31;52947;50.842;6.084;2023-04-22T12:28:23;19.24;62.98
66144;SHT31;52947;50.842;6.084;2023-04-22T12:30:51;18.89;63.99
66144;SHT31;52947;50.842;6.084;2023-04-22T12:33:19;18.95;64.13
66144;SHT31;52947;50.842;6.084;2023-04-22T12:35:47;18.88;64.38
66144;SHT31;52947;50.842;6.084;2023-04-22T12:38:18;18.89;64.22
66144;SHT31;52947;50.842;6.084;2023-04-22T12:40:47;18.91;64.48
66144;SHT31;52947;50.842;6.084;2023-04-22T12:43:19;18.82;64.90
66144;SHT31;52947;50.842;6.084;2023-04-22T12:45:47;18.84;64.88
66144;SHT31;52947;50.842;6.084;2023-04-22T12:48:15;18.68;64.27
66144;SHT31;52947;50.842;6.084;2023-04-22T12:50:43;18.85;64.04
66144;SHT31;52947;50.842;6.084;2023-04-22T12:53:11;18.81;63.87
66144;SHT31;52947;50.842;6.084;2023-04-22T12:55:39;18.78;63.94
66144;SHT31;52947;50.842;6.084;2023-04-22T12:58:12;18.67;64.70
66144;SHT31;52947;50.842;6.084;2023-04-22T13:00:40;18.48;66.62
66144;SHT31;52947;50.842;6.084;2023-04-22T13:03:08;18.27;67.56
66144;SHT31;52947;50.842;6.084;2023-04-22T13:05:37;18.00;68.13
66144;SHT31;52947;50.842;6.084;2023-04-22T13:08:06;17.69;69.29
66144;SHT31;52947;50.842;6.084;2023-04-22T13:10:34;17.48;70.26
66144;SHT31;52947;50.842;6.084;2023-04-22T13:13:02;17.36;71.50
66144;SHT31;52947;50.842;6.084;2023-04-22T13:15:46;17.15;73.18
66144;SHT31;52947;50.842;6.084;2023-04-22T13:18:20;17.04;74.17
66144;SHT31;52947;50.842;6.084;2023-04-22T13:20:48;16.94;74.87
66144;SHT31;52947;50.842;6.084;2023-04-22T13:23:16;16.92;74.76
66144;SHT31;52947;50.842;6.084;2023-04-22T13:25:45;16.97;75.12
66144;SHT31;52947;50.842;6.084;2023-04-22T13:28:13;16.91;74.91
66144;SHT31;52947;50.842;6.084;2023-04-22T13:30:41;16.88;74.65
66144;SHT31;52947;50.842;6.084;2023-04-22T13:33:10;16.95;74.71
66144;SHT31;52947;50.842;6.084;2023-04-22T13:35:38;17.01;74.05
66144;SHT31;52947;50.842;6.084;2023-04-22T13:38:06;17.01;74.18
66144;SHT31;52947;50.842;6.084;2023-04-22T13:40:34;17.01;73.81
66144;SHT31;52947;50.842;6.084;2023-04-22T13:43:02;17.01;73.17
66144;SHT31;52947;50.842;6.084;2023-04-22T13:45:30;17.10;73.14
66144;SHT31;52947;50.842;6.084;2023-04-22T13:47:58;17.06;73.18
66144;SHT31;52947;50.842;6.084;2023-04-22T13:50:27;17.07;71.95
66144;SHT31;52947;50.842;6.084;2023-04-22T13:52:55;17.01;72.27
66144;SHT31;52947;50.842;6.084;2023-04-22T13:55:23;16.94;72.25
66144;SHT31;52947;50.842;6.084;2023-04-22T13:57:52;17.01;72.56
66144;SHT31;52947;50.842;6.084;2023-04-22T14:00:20;17.03;72.42
66144;SHT31;52947;50.842;6.084;2023-04-22T14:02:48;17.08;71.87
66144;SHT31;52947;50.842;6.084;2023-04-22T14:05:16;17.11;71.53
66144;SHT31;52947;50.842;6.084;2023-04-22T14:07:45;17.08;71.60
66144;SHT31;52947;50.842;6.084;2023-04-22T14:10:13;16.98;72.03
66144;SHT31;52947;50.842;6.084;2023-04-22T14:12:41;17.06;71.81
66144;SHT31;52947;50.842;6.084;2023-04-22T14:15:09;17.01;71.83
66144;SHT31;52947;50.842;6.084;2023-04-22T14:17:37;17.14;71.49
66144;SHT31;52947;50.842;6.084;2023-04-22T14:20:06;17.24;71.42
66144;SHT31;52947;50.842;6.084;2023-04-22T14:22:36;17.24;71.25
66144;SHT31;52947;50.842;6.084;2023-04-22T14:25:07;17.22;71.45
66144;SHT31;52947;50.842;6.084;2023-04-22T14:27:35;17.24;71.17
66144;SHT31;52947;50.842;6.084;2023-04-22T14:30:04;17.25;71.59
66144;SHT31;52947;50.842;6.084;2023-04-22T14:32:34;17.25;71.58
66144;SHT31;52947;50.842;6.084;2023-04-22T14:35:03;17.43;71.33
66144;SHT31;52947;50.842;6.084;2023-04-22T14:37:31;17.51;70.93
66144;SHT31;52947;50.842;6.084;2023-04-22T14:40:01;17.41;71.76
66144;SHT31;52947;50.842;6.084;2023-04-22T14:42:32;17.28;72.67
66144;SHT31;52947;50.842;6.084;2023-04-22T14:45:00;17.22;73.28
66144;SHT31;52947;50.842;6.084;2023-04-22T14:47:27;17.18;73.67
66144;SHT31;52947;50.842;6.084;2023-04-22T14:49:56;17.00;74.61
66144;SHT31;52947;50.842;6.084;2023-04-22T14:52:24;17.00;75.00
66144;SHT31;52947;50.842;6.084;2023-04-22T14:54:52;17.14;75.07
66144;SHT31;52947;50.842;6.084;2023-04-22T14:57:19;17.15;75.09
66144;SHT31;52947;50.842;6.084;2023-04-22T14:59:49;17.14;75.10
66144;SHT31;52947;50.842;6.084;2023-04-22T15:02:16;17.12;75.09
66144;SHT31;52947;50.842;6.084;2023-04-22T15:04:44;17.04;75.34
66144;SHT31;52947;50.842;6.084;2023-04-22T15:07:12;16.97;75.62
66144;SHT31;52947;50.842;6.084;2023-04-22T15:09:40;16.69;75.46
66144;SHT31;52947;50.842;6.084;2023-04-22T15:12:09;16.42;76.46
66144;SHT31;52947;50.842;6.084;2023-04-22T15:14:37;16.22;77.78
66144;SHT31;52947;50.842;6.084;2023-04-22T15:17:07;16.04;78.00
66144;SHT31;52947;50.842;6.084;2023-04-22T15:19:35;15.94;78.89
66144;SHT31;52947;50.842;6.084;2023-04-22T15:22:03;15.91;80.03
66144;SHT31;52947;50.842;6.084;2023-04-22T15:24:31;15.74;80.16
66144;SHT31;52947;50.842;6.084;2023-04-22T15:26:59;15.57;80.78
66144;SHT31;52947;50.842;6.084;2023-04-22T15:29:28;15.51;80.67
66144;SHT31;52947;50.842;6.084;2023-04-22T15:31:57;15.47;81.01
66144;SHT31;52947;50.842;6.084;2023-04-22T15:34:26;15.33;80.76
66144;SHT31;52947;50.842;6.084;2023-04-22T15:36:54;15.23;81.11
66144;SHT31;52947;50.842;6.084;2023-04-22T15:39:23;15.10;81.76
66144;SHT31;52947;50.842;6.084;2023-04-22T15:41:51;15.04;81.64
66144;SHT31;52947;50.842;6.084;2023-04-22T15:44:19;15.00;82.10
66144;SHT31;52947;50.842;6.084;2023-04-22T15:46:46;14.93;82.57
66144;SHT31;52947;50.842;6.084;2023-04-22T15:49:14;14.86;83.02
66144;SHT31;52947;50.842;6.084;2023-04-22T15:51:44;14.87;83.27
66144;SHT31;52947;50.842;6.084;2023-04-22T15:54:12;14.87;83.36
66144;SHT31;52947;50.842;6.084;2023-04-22T15:56:39;14.87;83.87